Terminal Aerodrome Forecast
Issued by NWS Wakefield, VA

Home | Current Version | Previous Version | Text Only | Print | Product List | Glossary On
Versions: 1 2 3 4 5 6 7 8 9 10 11 12 13 14 15 16
000
FTUS41 KAKQ 292000 AAA
TAFRIC
TAF AMD
KRIC 292046Z 2921/3018 18009KT P6SM SCT100 OVC250
      TEMPO 2921/2922 P6SM -RAPL OVC070
     FM292200 19010KT P6SM SCT070 OVC150
     FM300800 28009KT P6SM SCT050
     FM301400 31015G25KT P6SM BKN050=

USA.gov is the U.S. government's official web portal to all federal, state and local government web resources and services.